createdAt,value
2023-09-12T00:02:18.026Z,65.71
2023-09-12T00:04:45.403Z,65.68
2023-09-12T00:07:12.749Z,65.88
2023-09-12T00:09:40.002Z,65.73
2023-09-12T00:12:07.642Z,65.64
2023-09-12T00:14:34.947Z,65.39
2023-09-12T00:17:02.307Z,65.59
2023-09-12T00:19:29.615Z,65.55
2023-09-12T00:21:56.817Z,65.53
2023-09-12T00:24:24.078Z,65.67
2023-09-12T00:26:51.301Z,65.63
2023-09-12T00:29:18.528Z,65.50
2023-09-12T00:31:45.811Z,65.38
2023-09-12T00:34:18.201Z,65.43
2023-09-12T00:36:45.810Z,65.30
2023-09-12T00:39:13.076Z,65.38
2023-09-12T00:41:40.349Z,65.36
2023-09-12T00:44:07.773Z,65.33
2023-09-12T00:46:36.245Z,65.30
2023-09-12T00:49:05.001Z,65.45
2023-09-12T00:51:33.180Z,65.17
2023-09-12T00:54:00.542Z,65.31
2023-09-12T00:56:28.208Z,65.25
2023-09-12T00:58:56.380Z,65.21
2023-09-12T01:01:23.753Z,65.00
2023-09-12T01:03:51.542Z,65.12
2023-09-12T01:06:21.041Z,65.04
2023-09-12T01:08:48.521Z,65.28
2023-09-12T01:11:15.861Z,65.31
2023-09-12T01:13:43.039Z,65.22
2023-09-12T01:16:10.279Z,64.98
2023-09-12T01:18:38.088Z,64.87
2023-09-12T01:21:43.535Z,65.24
2023-09-12T01:24:35.798Z,65.09
2023-09-12T01:27:27.094Z,65.20
2023-09-12T01:29:58.745Z,64.89
2023-09-12T01:32:26.096Z,64.97
2023-09-12T01:34:53.359Z,65.17
2023-09-12T01:37:20.561Z,64.96
2023-09-12T01:39:47.847Z,64.92
2023-09-12T01:42:17.669Z,65.08
2023-09-12T01:44:45.723Z,65.10
2023-09-12T01:47:13.645Z,65.32
2023-09-12T01:49:47.481Z,65.11
2023-09-12T01:52:15.750Z,64.96
2023-09-12T01:54:44.027Z,64.97
2023-09-12T01:57:11.628Z,64.91
2023-09-12T01:59:38.979Z,65.35
2023-09-12T02:02:06.157Z,64.92
2023-09-12T02:04:33.348Z,64.98
2023-09-12T02:07:00.599Z,65.08
2023-09-12T02:09:27.830Z,64.98
2023-09-12T02:11:55.074Z,65.00
2023-09-12T02:14:22.723Z,64.89
2023-09-12T02:16:50.025Z,65.00
2023-09-12T02:19:17.271Z,64.84
2023-09-12T02:21:44.572Z,65.04
2023-09-12T02:24:11.876Z,64.89
2023-09-12T02:26:39.073Z,64.88
2023-09-12T02:29:07.223Z,64.83
2023-09-12T02:31:34.542Z,65.03
2023-09-12T02:34:01.818Z,64.98
2023-09-12T02:36:30.180Z,64.70
2023-09-12T02:38:57.454Z,64.87
2023-09-12T02:41:24.685Z,64.83
2023-09-12T02:43:51.961Z,64.79
2023-09-12T02:46:19.164Z,64.61
2023-09-12T02:48:46.584Z,64.64
2023-09-12T02:51:14.081Z,65.10
2023-09-12T02:53:41.483Z,65.33
2023-09-12T02:56:08.695Z,65.03
2023-09-12T02:58:35.885Z,64.85
2023-09-12T03:01:04.593Z,64.89
2023-09-12T03:03:32.067Z,65.16
2023-09-12T03:06:00.532Z,64.83
2023-09-12T03:08:27.799Z,65.03
2023-09-12T03:10:58.409Z,65.06
2023-09-12T03:13:26.705Z,65.04
2023-09-12T03:15:54.180Z,65.00
2023-09-12T03:18:21.648Z,65.19
2023-09-12T03:20:48.947Z,65.23
2023-09-12T03:23:16.147Z,64.98
2023-09-12T03:25:43.377Z,65.17
2023-09-12T03:28:10.618Z,65.35
2023-09-12T03:30:38.792Z,64.92
2023-09-12T03:33:06.752Z,64.86
2023-09-12T03:35:34.781Z,65.05
2023-09-12T03:38:02.363Z,65.02
2023-09-12T03:40:32.782Z,65.00
2023-09-12T03:43:00.093Z,64.90
2023-09-12T03:45:27.359Z,64.88
2023-09-12T03:47:54.585Z,64.89
2023-09-12T03:50:21.830Z,65.10
2023-09-12T03:52:49.051Z,65.07
2023-09-12T03:55:16.346Z,65.07
2023-09-12T03:57:43.777Z,65.16
2023-09-12T04:00:11.394Z,64.96
2023-09-12T04:02:38.716Z,65.33
2023-09-12T04:05:06.099Z,64.83
2023-09-12T04:07:33.280Z,65.02
2023-09-12T04:10:00.539Z,64.78
2023-09-12T04:12:27.797Z,64.98
2023-09-12T04:14:56.164Z,64.93
2023-09-12T04:17:23.459Z,64.94
2023-09-12T04:19:50.660Z,64.98
2023-09-12T04:22:17.874Z,65.24
2023-09-12T04:24:45.106Z,64.74
2023-09-12T04:27:12.405Z,64.88
2023-09-12T04:29:40.265Z,65.07
2023-09-12T04:32:07.758Z,65.26
2023-09-12T04:34:36.467Z,64.80
2023-09-12T04:37:07.465Z,64.74
2023-09-12T04:39:34.920Z,64.97
2023-09-12T04:42:02.115Z,64.61
2023-09-12T04:44:29.299Z,65.31
2023-09-12T04:46:56.498Z,65.20
2023-09-12T04:49:23.753Z,64.84
2023-09-12T04:51:50.963Z,64.97
2023-09-12T04:54:18.305Z,64.99
2023-09-12T04:56:45.519Z,65.23
2023-09-12T04:59:12.701Z,65.23
2023-09-12T05:01:39.896Z,65.32
2023-09-12T05:04:07.204Z,65.72
2023-09-12T05:06:34.812Z,65.81
2023-09-12T05:09:02.153Z,65.76
2023-09-12T05:11:29.366Z,65.30
2023-09-12T05:13:56.578Z,64.47
2023-09-12T05:16:23.800Z,64.57
2023-09-12T05:18:52.050Z,64.67
2023-09-12T05:21:19.372Z,64.23
2023-09-12T05:23:46.601Z,63.73
2023-09-12T05:26:13.788Z,63.87
2023-09-12T05:28:41.573Z,63.55
2023-09-12T05:31:09.044Z,62.94
2023-09-12T05:33:36.291Z,63.20
2023-09-12T05:36:04.215Z,62.82
2023-09-12T05:38:31.489Z,62.55
2023-09-12T05:40:58.822Z,61.78
2023-09-12T05:43:26.008Z,61.42
2023-09-12T05:45:54.119Z,61.34
2023-09-12T05:48:21.420Z,62.11
2023-09-12T05:50:48.634Z,62.18
2023-09-12T05:53:15.908Z,63.03
2023-09-12T05:55:43.139Z,63.18
2023-09-12T05:58:10.381Z,65.34
2023-09-12T06:00:37.593Z,66.95
2023-09-12T06:03:05.108Z,65.46
2023-09-12T06:05:32.905Z,64.68
2023-09-12T06:08:00.822Z,67.67
2023-09-12T06:10:28.122Z,67.86
2023-09-12T06:12:55.320Z,65.98
2023-09-12T06:15:22.588Z,65.14
2023-09-12T06:17:49.845Z,65.99
2023-09-12T06:20:17.046Z,66.17
2023-09-12T06:22:44.747Z,65.64
2023-09-12T06:25:11.988Z,65.04
2023-09-12T06:27:39.208Z,65.11
2023-09-12T06:30:07.116Z,66.17
2023-09-12T06:32:34.365Z,64.85
2023-09-12T06:35:01.659Z,64.76
2023-09-12T06:37:28.852Z,64.03
2023-09-12T06:39:56.053Z,65.24
2023-09-12T06:42:23.279Z,64.24
2023-09-12T06:44:50.496Z,64.50
2023-09-12T06:47:17.668Z,62.79
2023-09-12T06:49:47.358Z,61.65
2023-09-12T06:52:17.336Z,61.60
2023-09-12T06:54:44.725Z,60.37
2023-09-12T06:57:12.249Z,51.65
2023-09-12T06:59:40.113Z,48.67
2023-09-12T07:02:08.522Z,47.51
2023-09-12T07:04:35.770Z,47.17
2023-09-12T07:07:03.649Z,46.88
2023-09-12T07:09:31.504Z,47.55
2023-09-12T07:11:59.073Z,47.20
2023-09-12T07:14:34.693Z,47.65
2023-09-12T07:17:02.068Z,49.35
2023-09-12T07:19:29.532Z,50.84
2023-09-12T07:21:58.049Z,51.67
2023-09-12T07:24:28.906Z,54.26
2023-09-12T07:26:56.407Z,53.85
2023-09-12T07:29:23.867Z,53.23
2023-09-12T07:31:57.851Z,53.85
2023-09-12T07:34:26.541Z,53.72
2023-09-12T07:36:54.949Z,52.54
2023-09-12T07:39:22.262Z,52.16
2023-09-12T07:41:49.512Z,51.64
2023-09-12T07:44:17.639Z,50.36
2023-09-12T07:46:45.550Z,49.72
2023-09-12T07:49:12.791Z,48.98
2023-09-12T07:51:40.025Z,47.44
2023-09-12T07:54:07.316Z,47.04
2023-09-12T07:56:34.565Z,45.04
2023-09-12T07:59:01.744Z,44.47
2023-09-12T08:01:29.054Z,45.52
2023-09-12T08:03:56.446Z,45.70
2023-09-12T08:06:25.274Z,44.80
2023-09-12T08:08:52.508Z,43.11
2023-09-12T08:11:19.721Z,44.61
2023-09-12T08:13:50.765Z,44.56
2023-09-12T08:16:18.213Z,45.17
2023-09-12T08:18:45.466Z,44.76
2023-09-12T08:21:12.916Z,43.77
2023-09-12T08:23:40.239Z,44.92
2023-09-12T08:26:07.451Z,47.05
2023-09-12T08:28:34.643Z,47.62
2023-09-12T08:31:01.799Z,46.31
2023-09-12T08:33:29.071Z,45.59
2023-09-12T08:35:56.348Z,46.68
2023-09-12T08:38:25.179Z,55.17
2023-09-12T08:40:52.479Z,58.73
2023-09-12T08:43:20.135Z,60.11
2023-09-12T08:45:48.520Z,61.71
2023-09-12T08:48:17.187Z,61.93
2023-09-12T08:50:45.236Z,62.66
2023-09-12T08:53:12.465Z,63.57
2023-09-12T08:55:39.861Z,63.74
2023-09-12T08:58:08.180Z,64.65
2023-09-12T09:00:36.914Z,64.85
2023-09-12T09:03:04.565Z,65.03
2023-09-12T09:05:32.576Z,64.55
2023-09-12T09:08:00.730Z,65.18
2023-09-12T09:10:47.070Z,66.07
2023-09-12T09:13:17.867Z,65.88
2023-09-12T09:15:45.180Z,65.83
2023-09-12T09:18:13.916Z,66.64
2023-09-12T09:20:42.259Z,66.57
2023-09-12T09:23:11.001Z,66.87
2023-09-12T09:25:42.477Z,66.09
2023-09-12T09:28:20.550Z,66.35
2023-09-12T09:30:50.118Z,67.06
2023-09-12T09:33:17.487Z,66.51
2023-09-12T09:35:48.255Z,65.81
2023-09-12T09:38:17.665Z,67.17
2023-09-12T09:40:45.432Z,68.36
2023-09-12T09:43:12.796Z,67.06
2023-09-12T09:45:47.302Z,68.20
2023-09-12T09:48:22.223Z,67.77
2023-09-12T09:50:50.122Z,66.00
2023-09-12T09:53:17.565Z,66.97
2023-09-12T09:55:45.048Z,65.93
2023-09-12T09:58:19.956Z,66.05
2023-09-12T10:00:49.523Z,67.72
2023-09-12T10:03:20.865Z,67.85
2023-09-12T10:05:49.587Z,68.68
2023-09-12T10:08:18.351Z,69.17
2023-09-12T10:10:45.588Z,66.93
2023-09-12T10:13:13.173Z,67.29
2023-09-12T10:15:40.777Z,66.01
2023-09-12T10:20:49.400Z,64.87
2023-09-12T10:23:28.958Z,64.50
2023-09-12T10:25:56.832Z,65.17
2023-09-12T10:28:24.310Z,64.18
2023-09-12T10:30:51.595Z,63.83
2023-09-12T10:33:19.368Z,64.05
2023-09-12T10:35:47.435Z,64.08
2023-09-12T10:38:15.461Z,64.08
2023-09-12T10:40:44.579Z,63.84
2023-09-12T10:43:12.731Z,62.86
2023-09-12T10:45:41.994Z,62.84
2023-09-12T10:48:12.179Z,62.29
2023-09-12T10:50:40.818Z,62.71
2023-09-12T10:53:16.538Z,62.41
2023-09-12T10:55:43.988Z,62.28
2023-09-12T10:58:12.258Z,61.54
2023-09-12T11:00:40.838Z,61.35
2023-09-12T11:03:38.606Z,61.78
2023-09-12T11:06:06.888Z,61.49
2023-09-12T11:08:38.447Z,61.93
2023-09-12T11:11:22.206Z,62.19
2023-09-12T11:14:05.116Z,62.22
2023-09-12T11:16:32.780Z,62.33
2023-09-12T11:19:19.713Z,62.21
2023-09-12T11:21:54.236Z,62.40
2023-09-12T11:24:22.376Z,62.64
2023-09-12T11:27:00.769Z,62.95
2023-09-12T11:29:38.683Z,62.67
2023-09-12T11:32:06.917Z,62.94
2023-09-12T11:34:40.017Z,63.01
2023-09-12T11:37:07.274Z,63.25
2023-09-12T11:39:36.793Z,62.05
2023-09-12T11:42:05.200Z,61.95
2023-09-12T11:44:33.245Z,61.99
2023-09-12T11:47:04.317Z,62.32
2023-09-12T11:49:41.704Z,62.46
2023-09-12T11:52:14.601Z,62.47
2023-09-12T11:54:42.750Z,62.72
2023-09-12T11:57:15.728Z,62.52
2023-09-12T11:59:49.992Z,62.28
2023-09-12T12:02:17.606Z,62.24
2023-09-12T12:04:45.061Z,62.59
2023-09-12T12:07:12.928Z,62.65
2023-09-12T12:09:40.578Z,62.04
2023-09-12T12:12:11.989Z,62.24
2023-09-12T12:14:41.058Z,62.13
2023-09-12T12:17:12.403Z,62.38
2023-09-12T12:19:40.349Z,62.47
2023-09-12T12:22:09.094Z,62.05
2023-09-12T12:24:41.863Z,62.14
2023-09-12T12:27:09.539Z,61.79
2023-09-12T12:29:37.610Z,61.63
2023-09-12T12:32:06.464Z,62.20
2023-09-12T12:35:28.008Z,62.32
2023-09-12T12:37:21.415Z,62.48
2023-09-12T12:39:49.003Z,60.12
2023-09-12T12:42:16.276Z,62.39
2023-09-12T12:44:43.488Z,62.01
2023-09-12T12:47:12.979Z,61.49
2023-09-12T12:49:41.117Z,61.35
2023-09-12T12:52:12.188Z,61.64
2023-09-12T12:54:40.213Z,61.48
2023-09-12T12:57:07.461Z,60.93
2023-09-12T12:59:37.412Z,61.14
2023-09-12T13:02:04.774Z,61.50
2023-09-12T13:04:39.227Z,62.03
2023-09-12T13:07:06.980Z,61.70
2023-09-12T13:09:34.915Z,61.49
2023-09-12T13:12:02.271Z,61.54
2023-09-12T13:14:32.273Z,61.28
2023-09-12T13:17:00.310Z,61.35
2023-09-12T13:19:28.052Z,61.12
2023-09-12T13:21:55.352Z,61.16
2023-09-12T13:24:22.595Z,60.94
2023-09-12T13:26:50.101Z,61.12
2023-09-12T13:29:17.448Z,61.68
2023-09-12T13:31:44.918Z,61.62
2023-09-12T13:34:12.332Z,61.58
2023-09-12T13:36:39.685Z,61.83
2023-09-12T13:39:09.458Z,61.54
2023-09-12T13:41:37.404Z,61.61
2023-09-12T13:44:05.003Z,61.95
2023-09-12T13:46:32.355Z,62.32
2023-09-12T13:49:01.761Z,62.07
2023-09-12T13:51:29.381Z,61.51
2023-09-12T13:53:56.602Z,62.34
2023-09-12T13:56:24.685Z,62.26
2023-09-12T13:58:52.068Z,62.38
2023-09-12T14:01:32.071Z,62.56
2023-09-12T14:04:03.456Z,63.10
2023-09-12T14:06:31.626Z,62.80
2023-09-12T14:08:59.481Z,62.64
2023-09-12T14:11:33.049Z,62.56
2023-09-12T14:16:34.681Z,61.49
2023-09-12T14:19:02.262Z,60.23
2023-09-12T14:21:31.192Z,61.69
2023-09-12T14:23:59.244Z,63.12
2023-09-12T14:26:26.770Z,63.87
2023-09-12T14:28:55.068Z,65.03
2023-09-12T14:31:24.137Z,65.74
2023-09-12T14:33:53.614Z,66.19
2023-09-12T14:36:20.994Z,66.56
2023-09-12T14:38:48.229Z,67.05
2023-09-12T14:41:15.662Z,66.45
2023-09-12T14:43:43.069Z,66.53
2023-09-12T14:46:11.197Z,66.52
2023-09-12T14:48:40.863Z,66.52
2023-09-12T14:51:09.966Z,66.92
2023-09-12T14:53:37.428Z,67.48
2023-09-12T14:56:04.669Z,68.01
2023-09-12T14:58:31.861Z,68.46
2023-09-12T15:00:59.959Z,67.08
2023-09-12T15:03:27.723Z,67.54
2023-09-12T15:05:54.960Z,67.33
2023-09-12T15:08:22.144Z,67.50
2023-09-12T15:10:49.511Z,68.24
2023-09-12T15:13:16.839Z,68.35
2023-09-12T15:15:44.145Z,68.52
2023-09-12T15:18:11.470Z,68.27
2023-09-12T15:20:38.690Z,68.23
2023-09-12T15:23:06.551Z,67.41
2023-09-12T15:25:33.746Z,67.74
2023-09-12T15:28:00.972Z,67.66
2023-09-12T15:30:28.331Z,67.31
2023-09-12T15:32:55.548Z,67.22
2023-09-12T15:35:22.906Z,67.46
2023-09-12T15:37:52.225Z,66.89
2023-09-12T15:40:19.389Z,67.12
2023-09-12T15:42:47.787Z,66.34
2023-09-12T15:45:17.052Z,66.89
2023-09-12T15:47:46.659Z,66.49
2023-09-12T15:50:15.171Z,66.49
2023-09-12T15:52:43.831Z,66.29
2023-09-12T15:55:12.225Z,65.97
2023-09-12T15:57:39.956Z,65.88
2023-09-12T16:00:11.041Z,66.45
2023-09-12T16:02:42.182Z,65.81
2023-09-12T16:05:10.055Z,65.20
2023-09-12T16:07:37.775Z,65.21
2023-09-12T16:10:05.326Z,65.57
2023-09-12T16:12:32.619Z,65.26
2023-09-12T16:14:59.923Z,65.95
2023-09-12T16:17:27.150Z,65.71
2023-09-12T16:19:55.416Z,64.94
2023-09-12T16:22:22.647Z,64.97
2023-09-12T16:24:49.887Z,64.95
2023-09-12T16:27:18.332Z,64.04
2023-09-12T16:29:45.574Z,64.69
2023-09-12T16:32:12.774Z,64.49
2023-09-12T16:34:40.186Z,64.00
2023-09-12T16:37:07.503Z,64.04
2023-09-12T16:39:36.818Z,63.79
2023-09-12T16:42:04.120Z,63.59
2023-09-12T16:44:31.320Z,63.43
2023-09-12T16:46:58.545Z,63.23
2023-09-12T16:49:26.058Z,62.91
2023-09-12T16:51:53.318Z,63.02
2023-09-12T16:54:20.559Z,63.04
2023-09-12T16:56:47.774Z,63.07
2023-09-12T16:59:15.003Z,63.03
2023-09-12T17:01:42.232Z,62.91
2023-09-12T17:04:11.082Z,63.00
2023-09-12T17:06:38.476Z,62.84
2023-09-12T17:09:05.998Z,62.91
2023-09-12T17:11:33.198Z,62.56
2023-09-12T17:14:00.456Z,62.92
2023-09-12T17:16:27.706Z,62.75
2023-09-12T17:18:55.093Z,62.80
2023-09-12T17:21:22.370Z,62.00
2023-09-12T17:23:49.555Z,62.49
2023-09-12T17:26:17.885Z,62.82
2023-09-12T17:28:45.104Z,62.67
2023-09-12T17:31:13.275Z,62.76
2023-09-12T17:33:40.506Z,62.08
2023-09-12T17:36:07.874Z,62.42
2023-09-12T17:38:35.106Z,62.26
2023-09-12T17:41:02.592Z,63.16
2023-09-12T17:43:31.018Z,63.08
2023-09-12T17:46:10.171Z,62.49
2023-09-12T17:48:41.270Z,62.55
2023-09-12T17:51:08.787Z,62.35
2023-09-12T17:53:35.955Z,62.39
2023-09-12T17:56:03.146Z,62.34
2023-09-12T17:58:30.328Z,62.58
2023-09-12T18:01:02.488Z,62.68
2023-09-12T18:03:32.452Z,62.54
2023-09-12T18:06:00.328Z,62.29
2023-09-12T18:08:27.558Z,63.28
2023-09-12T18:10:54.750Z,63.26
2023-09-12T18:13:21.996Z,63.40
2023-09-12T18:15:49.285Z,63.48
2023-09-12T18:18:16.581Z,63.60
2023-09-12T18:20:43.782Z,63.58
2023-09-12T18:23:10.995Z,63.61
2023-09-12T18:25:38.181Z,64.06
2023-09-12T18:28:06.371Z,64.43
2023-09-12T18:30:33.685Z,64.66
2023-09-12T18:33:00.972Z,64.99
2023-09-12T18:35:28.226Z,64.91
2023-09-12T18:37:55.663Z,65.54
2023-09-12T18:40:23.396Z,65.53
2023-09-12T18:42:50.620Z,65.82
2023-09-12T18:45:17.852Z,66.51
2023-09-12T18:47:45.181Z,66.93
2023-09-12T18:50:12.424Z,67.48
2023-09-12T18:52:53.775Z,66.66
2023-09-12T18:55:23.916Z,67.01
2023-09-12T18:57:51.253Z,66.76
2023-09-12T19:00:18.760Z,67.67
2023-09-12T19:02:46.870Z,67.67
2023-09-12T19:05:14.379Z,68.39
2023-09-12T19:07:41.700Z,67.67
2023-09-12T19:10:11.485Z,67.38
2023-09-12T19:12:38.843Z,67.54
2023-09-12T19:15:06.612Z,68.04
2023-09-12T19:17:34.003Z,68.39
2023-09-12T19:20:01.298Z,67.87
2023-09-12T19:22:28.537Z,67.48
2023-09-12T19:24:55.742Z,69.18
2023-09-12T19:27:23.330Z,68.42
2023-09-12T19:29:52.758Z,67.20
2023-09-12T19:32:19.938Z,67.92
2023-09-12T19:34:47.115Z,67.57
2023-09-12T19:37:14.337Z,68.50
2023-09-12T19:39:41.597Z,68.50
2023-09-12T19:42:10.117Z,68.23
2023-09-12T19:44:37.332Z,68.75
2023-09-12T19:47:05.293Z,68.96
2023-09-12T19:49:32.806Z,69.24
2023-09-12T19:52:00.075Z,69.02
2023-09-12T19:54:27.277Z,69.41
2023-09-12T19:56:54.452Z,69.30
2023-09-12T19:59:21.705Z,68.88
2023-09-12T20:01:49.943Z,69.52
2023-09-12T20:04:17.580Z,69.44
2023-09-12T20:06:44.941Z,69.61
2023-09-12T20:09:12.610Z,69.21
2023-09-12T20:11:41.146Z,70.04
2023-09-12T20:14:11.501Z,69.21
2023-09-12T20:16:39.530Z,69.63
2023-09-12T20:19:09.023Z,69.50
2023-09-12T20:21:36.661Z,69.93
2023-09-12T20:24:08.150Z,69.63
2023-09-12T20:26:35.808Z,70.37
2023-09-12T20:29:03.084Z,70.46
2023-09-12T20:31:30.357Z,70.62
2023-09-12T20:33:58.025Z,70.91
2023-09-12T20:36:30.449Z,71.44
2023-09-12T20:39:26.570Z,71.30
2023-09-12T20:41:54.751Z,71.05
2023-09-12T20:44:22.143Z,71.12
2023-09-12T20:46:49.523Z,70.63
2023-09-12T20:49:16.868Z,71.15
2023-09-12T20:51:49.254Z,71.38
2023-09-12T20:54:17.562Z,71.61
2023-09-12T20:56:45.574Z,71.62
2023-09-12T20:59:12.876Z,72.14
2023-09-12T21:01:40.200Z,71.80
2023-09-12T21:04:07.580Z,72.04
2023-09-12T21:06:35.206Z,73.28
2023-09-12T21:09:02.511Z,74.33
2023-09-12T21:11:29.738Z,74.08
2023-09-12T21:13:56.926Z,73.52
2023-09-12T21:16:24.290Z,74.00
2023-09-12T21:18:51.646Z,73.93
2023-09-12T21:21:18.843Z,74.39
2023-09-12T21:23:46.473Z,73.97
2023-09-12T21:26:13.925Z,73.65
2023-09-12T21:28:41.134Z,73.29
2023-09-12T21:31:08.395Z,73.54
2023-09-12T21:33:35.814Z,73.66
2023-09-12T21:36:03.956Z,74.01
2023-09-12T21:38:31.167Z,73.65
2023-09-12T21:40:59.426Z,74.46
2023-09-12T21:43:27.075Z,73.42
2023-09-12T21:45:54.390Z,74.04
2023-09-12T21:48:21.676Z,73.72
2023-09-12T21:50:48.897Z,73.38
2023-09-12T21:53:16.075Z,73.75
2023-09-12T21:55:43.281Z,74.51
2023-09-12T21:58:10.472Z,75.65
2023-09-12T22:00:37.833Z,76.23
2023-09-12T22:03:05.497Z,75.91
2023-09-12T22:05:33.583Z,76.22
2023-09-12T22:08:00.761Z,76.01
2023-09-12T22:10:28.001Z,76.34
2023-09-12T22:12:56.249Z,74.61
2023-09-12T22:15:23.432Z,73.33
2023-09-12T22:17:50.663Z,73.24
2023-09-12T22:20:17.953Z,72.97
2023-09-12T22:22:46.428Z,72.76
2023-09-12T22:25:14.204Z,72.30
2023-09-12T22:27:42.567Z,72.72
2023-09-12T22:30:10.332Z,72.45
2023-09-12T22:32:40.473Z,71.72
2023-09-12T22:35:07.986Z,71.58
2023-09-12T22:37:35.352Z,71.84
2023-09-12T22:40:02.666Z,71.32
2023-09-12T22:42:29.932Z,71.28
2023-09-12T22:44:57.194Z,71.52
2023-09-12T22:47:24.995Z,70.96
2023-09-12T22:49:52.692Z,70.94
2023-09-12T22:52:20.032Z,70.97
2023-09-12T22:54:47.393Z,70.74
2023-09-12T22:57:14.636Z,70.49
2023-09-12T22:59:41.824Z,70.57
2023-09-12T23:02:09.823Z,70.65
2023-09-12T23:04:37.161Z,70.81
2023-09-12T23:07:04.593Z,70.20
2023-09-12T23:09:31.960Z,70.70
2023-09-12T23:11:59.305Z,70.33
2023-09-12T23:14:29.564Z,70.17
2023-09-12T23:16:56.780Z,69.99
2023-09-12T23:23:12.531Z,70.23
2023-09-12T23:25:40.009Z,70.25
2023-09-12T23:28:07.780Z,69.79
2023-09-12T23:30:35.165Z,69.73
2023-09-12T23:33:02.409Z,70.06
2023-09-12T23:35:29.645Z,70.06
2023-09-12T23:37:56.872Z,70.16
2023-09-12T23:40:24.082Z,70.02
2023-09-12T23:42:51.408Z,69.45
2023-09-12T23:45:18.736Z,69.55
2023-09-12T23:47:45.956Z,69.32
2023-09-12T23:50:13.456Z,69.53
2023-09-12T23:52:40.808Z,69.18
2023-09-12T23:55:08.294Z,69.20
2023-09-12T23:57:35.573Z,68.92
